createdAt,value
2018-01-19T00:01:39.754Z,8.87
2018-01-19T00:04:07.257Z,7.57
2018-01-19T00:06:34.772Z,8.77
2018-01-19T00:09:02.293Z,7.93
2018-01-19T00:11:29.796Z,8.57
2018-01-19T00:13:57.328Z,7.13
2018-01-19T00:16:24.837Z,9.43
2018-01-19T00:18:52.365Z,7.27
2018-01-19T00:21:19.872Z,9.33
2018-01-19T00:23:47.387Z,9.47
2018-01-19T00:26:14.945Z,7.63
2018-01-19T00:28:42.448Z,8.33
2018-01-19T00:31:09.956Z,8.87
2018-01-19T00:33:37.462Z,9.63
2018-01-19T00:36:04.989Z,10.50
2018-01-19T00:38:32.516Z,9.37
2018-01-19T00:41:00.027Z,9.70
2018-01-19T00:43:27.543Z,9.57
2018-01-19T00:45:55.053Z,9.80
2018-01-19T00:48:22.576Z,10.27
2018-01-19T00:50:50.138Z,12.20
2018-01-19T00:53:17.661Z,11.93
2018-01-19T00:55:45.190Z,13.00
2018-01-19T00:58:13.032Z,10.67
2018-01-19T01:00:40.556Z,10.50
2018-01-19T01:03:08.074Z,12.60
2018-01-19T01:05:35.604Z,10.73
2018-01-19T01:08:03.111Z,13.17
2018-01-19T01:10:30.633Z,13.03
2018-01-19T01:12:58.160Z,12.50
2018-01-19T01:15:25.709Z,12.47
2018-01-19T01:17:53.214Z,12.87
2018-01-19T01:20:20.727Z,11.27
2018-01-19T01:22:48.251Z,11.83
2018-01-19T01:25:15.768Z,14.00
2018-01-19T01:27:43.280Z,10.30
2018-01-19T01:30:10.790Z,10.40
2018-01-19T01:32:38.316Z,10.37
2018-01-19T01:35:05.847Z,10.67
2018-01-19T01:37:33.357Z,10.43
2018-01-19T01:40:00.865Z,9.33
2018-01-19T01:42:28.385Z,12.47
2018-01-19T01:44:55.905Z,12.13
2018-01-19T01:47:23.420Z,8.97
2018-01-19T01:49:50.924Z,7.57
2018-01-19T01:52:18.465Z,7.23
2018-01-19T01:54:45.976Z,10.40
2018-01-19T01:57:13.508Z,11.03
2018-01-19T01:59:41.021Z,8.73
2018-01-19T02:02:08.537Z,6.93
2018-01-19T02:04:36.054Z,8.43
2018-01-19T02:07:03.571Z,7.53
2018-01-19T02:09:31.092Z,6.83
2018-01-19T02:11:58.613Z,7.23
2018-01-19T02:14:26.133Z,5.20
2018-01-19T02:16:53.649Z,5.13
2018-01-19T02:19:21.161Z,5.57
2018-01-19T02:21:48.691Z,7.07
2018-01-19T02:24:16.197Z,6.27
2018-01-19T02:26:43.704Z,6.73
2018-01-19T02:29:11.212Z,6.20
2018-01-19T02:31:38.730Z,5.40
2018-01-19T02:34:06.243Z,6.37
2018-01-19T02:36:33.744Z,5.63
2018-01-19T02:39:01.303Z,5.03
2018-01-19T02:41:28.791Z,6.73
2018-01-19T02:43:56.305Z,6.00
2018-01-19T02:46:23.810Z,6.80
2018-01-19T02:48:51.337Z,4.77
2018-01-19T02:51:18.841Z,6.93
2018-01-19T02:53:46.381Z,7.43
2018-01-19T02:56:13.912Z,4.80
2018-01-19T02:58:41.429Z,7.00
2018-01-19T03:01:08.952Z,6.73
2018-01-19T03:03:36.452Z,6.07
2018-01-19T03:06:03.974Z,4.87
2018-01-19T03:08:31.481Z,6.20
2018-01-19T03:10:58.987Z,5.83
2018-01-19T03:13:26.519Z,6.77
2018-01-19T03:15:54.025Z,6.03
2018-01-19T03:18:21.538Z,5.53
2018-01-19T03:20:49.049Z,5.00
2018-01-19T03:23:16.568Z,5.77
2018-01-19T03:25:44.083Z,6.60
2018-01-19T03:28:11.598Z,6.13
2018-01-19T03:30:39.124Z,6.87
2018-01-19T03:33:06.665Z,7.17
2018-01-19T03:35:34.184Z,6.07
2018-01-19T03:38:01.707Z,5.27
2018-01-19T03:40:29.230Z,5.13
2018-01-19T03:42:56.741Z,6.17
2018-01-19T03:45:24.261Z,6.10
2018-01-19T03:47:51.766Z,6.33
2018-01-19T03:50:19.262Z,5.37
2018-01-19T03:52:46.790Z,8.40
2018-01-19T03:55:14.305Z,6.67
2018-01-19T03:57:41.813Z,6.87
2018-01-19T04:00:09.336Z,5.37
2018-01-19T04:02:36.857Z,5.17
2018-01-19T04:05:04.369Z,7.60
2018-01-19T04:07:31.872Z,8.67
2018-01-19T04:09:59.383Z,5.67
2018-01-19T04:12:26.950Z,7.60
2018-01-19T04:14:54.466Z,7.33
2018-01-19T04:17:22.398Z,6.23
2018-01-19T04:19:49.921Z,6.37
2018-01-19T04:22:17.434Z,5.43
2018-01-19T04:24:44.942Z,8.50
2018-01-19T04:27:12.462Z,7.17
2018-01-19T04:29:40.234Z,6.43
2018-01-19T04:32:07.744Z,6.90
2018-01-19T04:34:35.284Z,6.73
2018-01-19T04:37:02.807Z,6.77
2018-01-19T04:39:30.321Z,7.23
2018-01-19T04:41:57.842Z,6.77
2018-01-19T04:44:25.346Z,6.53
2018-01-19T04:46:52.871Z,6.33
2018-01-19T04:49:20.386Z,6.53
2018-01-19T04:51:47.913Z,6.40
2018-01-19T04:54:15.422Z,7.03
2018-01-19T04:56:42.953Z,6.73
2018-01-19T04:59:10.465Z,6.90
2018-01-19T05:01:37.976Z,6.97
2018-01-19T05:04:05.479Z,5.80
2018-01-19T05:06:32.994Z,6.30
2018-01-19T05:09:00.497Z,6.20
2018-01-19T05:11:28.028Z,6.90
2018-01-19T05:13:55.561Z,5.90
2018-01-19T05:16:23.077Z,6.90
2018-01-19T05:18:50.589Z,6.03
2018-01-19T05:21:18.093Z,5.43
2018-01-19T05:23:45.601Z,5.57
2018-01-19T05:26:13.126Z,7.20
2018-01-19T05:28:40.643Z,6.17
2018-01-19T05:31:08.146Z,7.03
2018-01-19T05:33:35.660Z,7.20
2018-01-19T05:36:03.169Z,6.37
2018-01-19T05:38:30.679Z,6.57
2018-01-19T05:40:58.192Z,8.23
2018-01-19T05:43:25.697Z,7.27
2018-01-19T05:45:53.214Z,7.63
2018-01-19T05:48:20.723Z,7.07
2018-01-19T05:50:48.241Z,6.37
2018-01-19T05:53:15.772Z,7.87
2018-01-19T05:55:43.325Z,6.73
2018-01-19T05:58:10.817Z,7.53
2018-01-19T06:00:38.327Z,9.53
2018-01-19T06:03:05.849Z,8.67
2018-01-19T06:05:33.366Z,8.70
2018-01-19T06:08:00.878Z,6.97
2018-01-19T06:10:28.389Z,9.30
2018-01-19T06:12:55.900Z,9.20
2018-01-19T06:15:23.406Z,8.37
2018-01-19T06:17:50.970Z,7.23
2018-01-19T06:20:18.499Z,6.70
2018-01-19T06:22:46.033Z,7.93
2018-01-19T06:25:13.542Z,9.17
2018-01-19T06:27:41.066Z,8.53
2018-01-19T06:30:08.578Z,8.23
2018-01-19T06:32:36.109Z,7.80
2018-01-19T06:35:03.616Z,10.10
2018-01-19T06:37:31.127Z,8.33
2018-01-19T06:39:58.647Z,7.40
2018-01-19T06:42:26.165Z,9.30
2018-01-19T06:44:53.672Z,7.00
2018-01-19T06:47:21.185Z,10.43
2018-01-19T06:49:48.698Z,10.20
2018-01-19T06:52:16.205Z,9.00
2018-01-19T06:54:43.729Z,11.00
2018-01-19T06:57:11.258Z,8.60
2018-01-19T06:59:38.780Z,10.07
2018-01-19T07:02:06.306Z,9.17
2018-01-19T07:04:33.831Z,9.77
2018-01-19T07:07:01.354Z,10.17
2018-01-19T07:09:28.877Z,8.77
2018-01-19T07:11:56.399Z,15.03
2018-01-19T07:14:23.921Z,9.97
2018-01-19T07:16:51.432Z,8.93
2018-01-19T07:19:18.942Z,9.87
2018-01-19T07:21:46.455Z,9.50
2018-01-19T07:24:13.964Z,12.33
2018-01-19T07:26:41.478Z,8.33
2018-01-19T07:29:08.995Z,10.13
2018-01-19T07:31:36.504Z,9.50
2018-01-19T07:34:04.634Z,13.20
2018-01-19T07:36:32.158Z,16.00
2018-01-19T07:39:00.008Z,11.23
2018-01-19T07:41:27.538Z,12.27
2018-01-19T07:43:55.049Z,13.50
2018-01-19T07:46:22.564Z,10.70
2018-01-19T07:48:50.081Z,13.47
2018-01-19T07:51:17.611Z,16.73
2018-01-19T07:53:45.145Z,12.77
2018-01-19T07:56:12.682Z,11.43
2018-01-19T07:58:40.213Z,10.00
2018-01-19T08:01:07.745Z,13.67
2018-01-19T08:03:35.261Z,14.33
2018-01-19T08:06:02.785Z,14.80
2018-01-19T08:08:30.342Z,16.20
2018-01-19T08:10:57.871Z,12.60
2018-01-19T08:13:25.392Z,14.63
2018-01-19T08:15:52.924Z,12.07
2018-01-19T08:18:20.447Z,11.73
2018-01-19T08:20:47.981Z,12.23
2018-01-19T08:23:15.502Z,9.60
2018-01-19T08:25:43.024Z,11.17
2018-01-19T08:28:10.538Z,11.67
2018-01-19T08:30:38.052Z,11.77
2018-01-19T08:33:05.579Z,13.90
2018-01-19T08:35:33.105Z,11.03
2018-01-19T08:38:00.663Z,11.70
2018-01-19T08:40:28.181Z,13.40
2018-01-19T08:42:55.705Z,10.80
2018-01-19T08:45:24.054Z,11.93
2018-01-19T08:47:51.652Z,11.37
2018-01-19T08:50:22.019Z,11.20
2018-01-19T08:52:49.775Z,15.70
2018-01-19T08:55:17.332Z,10.87
2018-01-19T08:57:44.863Z,9.80
2018-01-19T09:00:12.382Z,12.80
2018-01-19T09:02:39.907Z,12.37
2018-01-19T09:05:07.438Z,11.70
2018-01-19T09:07:34.957Z,11.90
2018-01-19T09:10:02.483Z,10.73
2018-01-19T09:12:30.016Z,18.27
2018-01-19T09:14:57.539Z,11.93
2018-01-19T09:17:25.068Z,14.77
2018-01-19T09:19:52.615Z,12.23
2018-01-19T09:22:20.149Z,11.50
2018-01-19T09:24:47.670Z,11.73
2018-01-19T09:27:15.234Z,15.77
2018-01-19T09:29:42.757Z,19.10
2018-01-19T09:32:10.281Z,15.07
2018-01-19T09:34:37.805Z,12.47
2018-01-19T09:37:05.341Z,14.77
2018-01-19T09:39:33.846Z,14.23
2018-01-19T09:42:01.372Z,13.53
2018-01-19T09:44:28.925Z,14.80
2018-01-19T09:46:56.452Z,18.47
2018-01-19T09:49:26.184Z,12.27
2018-01-19T09:51:53.727Z,13.23
2018-01-19T09:54:21.293Z,12.60
2018-01-19T09:56:49.687Z,15.17
2018-01-19T09:59:17.201Z,14.30
2018-01-19T10:01:44.714Z,14.33
2018-01-19T10:04:13.057Z,17.00
2018-01-19T10:06:40.609Z,19.60
2018-01-19T10:09:08.144Z,18.27
2018-01-19T10:11:35.889Z,13.10
2018-01-19T10:14:03.416Z,13.13
2018-01-19T10:16:30.947Z,17.50
2018-01-19T10:18:59.557Z,14.70
2018-01-19T10:21:27.077Z,18.87
2018-01-19T10:23:54.604Z,17.27
2018-01-19T10:26:22.132Z,16.77
2018-01-19T10:28:49.656Z,16.30
2018-01-19T10:31:17.180Z,21.50
2018-01-19T10:33:44.717Z,18.53
2018-01-19T10:36:12.237Z,18.83
2018-01-19T10:38:39.758Z,15.60
2018-01-19T10:41:07.283Z,16.20
2018-01-19T10:43:34.809Z,16.90
2018-01-19T10:46:02.665Z,18.67
2018-01-19T10:48:30.843Z,19.30
2018-01-19T10:50:59.352Z,15.67
2018-01-19T10:53:27.348Z,17.47
2018-01-19T10:55:56.593Z,16.07
2018-01-19T10:58:24.119Z,16.43
2018-01-19T11:00:51.649Z,20.97
2018-01-19T11:03:19.198Z,18.20
2018-01-19T11:05:46.737Z,14.33
2018-01-19T11:08:14.277Z,17.10
2018-01-19T11:10:41.801Z,23.97
2018-01-19T11:13:09.324Z,19.37
2018-01-19T11:15:36.856Z,20.93
2018-01-19T11:18:04.743Z,14.77
2018-01-19T11:20:32.280Z,15.43
2018-01-19T11:22:59.821Z,17.83
2018-01-19T11:25:31.167Z,18.80
2018-01-19T11:27:58.690Z,18.83
2018-01-19T11:30:26.234Z,18.60
2018-01-19T11:32:53.982Z,20.67
2018-01-19T11:35:21.500Z,21.53
2018-01-19T11:37:49.033Z,19.50
2018-01-19T11:40:17.293Z,20.07
2018-01-19T11:42:45.419Z,19.50
2018-01-19T11:45:12.967Z,23.03
2018-01-19T11:47:40.500Z,19.03
2018-01-19T11:50:08.336Z,18.53
2018-01-19T11:52:35.861Z,19.60
2018-01-19T11:55:03.392Z,21.30
2018-01-19T11:57:31.799Z,20.37
2018-01-19T12:00:00.230Z,23.07
2018-01-19T12:02:28.363Z,18.73
2018-01-19T12:04:55.914Z,23.57
2018-01-19T12:07:23.451Z,20.43
2018-01-19T12:09:50.970Z,20.40
2018-01-19T12:12:18.492Z,24.07
2018-01-19T12:14:46.021Z,19.57
2018-01-19T12:17:13.559Z,16.23
2018-01-19T12:19:41.097Z,25.57
2018-01-19T12:22:08.614Z,23.13
2018-01-19T12:24:36.133Z,21.23
2018-01-19T12:27:03.656Z,17.77
2018-01-19T12:29:31.181Z,21.40
2018-01-19T12:31:58.697Z,20.17
2018-01-19T12:34:27.132Z,20.47
2018-01-19T12:36:54.669Z,20.33
2018-01-19T12:39:22.197Z,17.97
2018-01-19T12:41:49.719Z,27.80
2018-01-19T12:44:17.236Z,19.70
2018-01-19T12:46:44.948Z,17.20
2018-01-19T12:49:12.469Z,21.17
2018-01-19T12:51:39.988Z,21.70
2018-01-19T12:54:07.520Z,19.50
2018-01-19T12:56:36.130Z,21.90
2018-01-19T12:59:05.028Z,21.03
2018-01-19T13:01:32.553Z,25.13
2018-01-19T13:04:01.786Z,18.80
2018-01-19T13:06:29.379Z,21.23
2018-01-19T13:08:56.933Z,16.60
2018-01-19T13:11:24.474Z,23.10
2018-01-19T13:13:51.990Z,18.93
2018-01-19T13:16:19.519Z,18.83
2018-01-19T13:18:47.041Z,16.73
2018-01-19T13:21:14.554Z,22.70
2018-01-19T13:23:42.081Z,17.67
2018-01-19T13:26:09.611Z,17.53
2018-01-19T13:28:37.145Z,16.93
2018-01-19T13:31:05.661Z,15.47
2018-01-19T13:33:33.197Z,20.80
2018-01-19T13:36:00.715Z,17.33
2018-01-19T13:38:28.255Z,24.63
2018-01-19T13:40:55.787Z,17.27
2018-01-19T13:43:23.305Z,19.33
2018-01-19T13:45:50.853Z,21.83
2018-01-19T13:48:18.383Z,21.73
2018-01-19T13:50:45.900Z,19.60
2018-01-19T13:53:13.426Z,22.50
2018-01-19T13:55:40.951Z,21.00
2018-01-19T13:58:08.478Z,18.13
2018-01-19T14:00:35.996Z,19.37
2018-01-19T14:03:03.578Z,20.63
2018-01-19T14:05:31.077Z,19.40
2018-01-19T14:07:58.607Z,22.90
2018-01-19T14:10:26.148Z,18.37
2018-01-19T14:12:53.696Z,21.30
2018-01-19T14:15:21.221Z,28.63
2018-01-19T14:17:48.758Z,21.03
2018-01-19T14:20:16.281Z,24.40
2018-01-19T14:22:43.807Z,24.67
2018-01-19T14:25:11.333Z,20.10
2018-01-19T14:27:38.887Z,23.23
2018-01-19T14:30:06.422Z,21.47
2018-01-19T14:32:33.948Z,25.77
2018-01-19T14:35:01.490Z,23.40
2018-01-19T14:37:29.088Z,24.70
2018-01-19T14:39:56.626Z,18.50
2018-01-19T14:42:24.151Z,24.70
2018-01-19T14:44:51.676Z,21.77
2018-01-19T14:47:19.207Z,20.53
2018-01-19T14:49:47.348Z,18.97
2018-01-19T14:52:15.199Z,21.00
2018-01-19T14:54:42.729Z,18.83
2018-01-19T14:57:10.259Z,20.10
2018-01-19T14:59:37.774Z,19.20
2018-01-19T15:02:05.304Z,18.93
2018-01-19T15:04:32.855Z,19.83
2018-01-19T15:07:00.379Z,22.10
2018-01-19T15:09:27.912Z,22.03
2018-01-19T15:11:59.402Z,17.33
2018-01-19T15:14:26.909Z,17.67
2018-01-19T15:16:54.423Z,19.47
2018-01-19T15:19:21.939Z,21.17
2018-01-19T15:21:49.469Z,22.57
2018-01-19T15:24:17.001Z,16.50
2018-01-19T15:26:44.518Z,18.60
2018-01-19T15:29:12.037Z,19.60
2018-01-19T15:31:40.396Z,18.17
2018-01-19T15:34:07.937Z,18.80
2018-01-19T15:36:35.445Z,20.33
2018-01-19T15:39:02.990Z,18.20
2018-01-19T15:41:30.517Z,17.33
2018-01-19T15:43:58.040Z,19.87
2018-01-19T15:46:25.560Z,22.97
2018-01-19T15:48:53.091Z,15.93
2018-01-19T15:51:21.804Z,16.93
2018-01-19T15:53:49.333Z,17.83
2018-01-19T15:56:16.924Z,15.63
2018-01-19T15:58:44.489Z,19.37
2018-01-19T16:01:12.020Z,20.53
2018-01-19T16:03:39.538Z,13.60
2018-01-19T16:06:07.066Z,17.47
2018-01-19T16:08:34.604Z,18.63
2018-01-19T16:11:02.134Z,15.73
2018-01-19T16:13:29.714Z,15.83
2018-01-19T16:15:57.248Z,17.30
2018-01-19T16:18:25.859Z,12.87
2018-01-19T16:20:53.376Z,16.03
2018-01-19T16:23:20.897Z,20.47
2018-01-19T16:25:49.421Z,12.67
2018-01-19T16:28:16.951Z,14.27
2018-01-19T16:30:45.639Z,13.17
2018-01-19T16:33:13.157Z,17.67
2018-01-19T16:35:40.674Z,13.30
2018-01-19T16:38:08.192Z,17.87
2018-01-19T16:40:35.714Z,14.93
2018-01-19T16:43:03.296Z,13.30
2018-01-19T16:45:32.373Z,12.43
2018-01-19T16:47:59.885Z,15.60
2018-01-19T16:50:27.414Z,11.70
2018-01-19T16:52:55.004Z,17.00
2018-01-19T16:55:23.311Z,16.20
2018-01-19T16:57:50.844Z,12.43
2018-01-19T17:00:18.376Z,13.93
2018-01-19T17:02:45.904Z,14.67
2018-01-19T17:05:13.416Z,14.93
2018-01-19T17:07:40.938Z,14.33
2018-01-19T17:10:08.459Z,11.43
2018-01-19T17:12:35.995Z,15.60
2018-01-19T17:15:04.061Z,14.43
2018-01-19T17:17:31.611Z,15.33
2018-01-19T17:19:59.126Z,13.60
2018-01-19T17:22:26.642Z,14.27
2018-01-19T17:24:54.173Z,15.90
2018-01-19T17:27:21.701Z,17.07
2018-01-19T17:29:49.217Z,14.00
2018-01-19T17:32:16.756Z,20.00
2018-01-19T17:34:44.282Z,15.83
2018-01-19T17:37:11.814Z,18.67
2018-01-19T17:39:39.328Z,17.30
2018-01-19T17:42:06.857Z,17.90
2018-01-19T17:44:34.386Z,15.23
2018-01-19T17:47:01.921Z,16.60
2018-01-19T17:49:29.443Z,17.17
2018-01-19T17:51:57.846Z,15.40
2018-01-19T17:54:26.164Z,15.97
2018-01-19T17:56:54.679Z,17.70
2018-01-19T17:59:23.268Z,16.13
2018-01-19T18:01:51.493Z,18.53
2018-01-19T18:04:19.930Z,18.87
2018-01-19T18:06:49.085Z,19.70
2018-01-19T18:09:16.613Z,10.17
2018-01-19T18:11:45.084Z,12.43
2018-01-19T18:14:13.642Z,9.90
2018-01-19T18:16:41.970Z,10.23
2018-01-19T18:19:11.088Z,7.73
2018-01-19T18:21:38.599Z,8.63
2018-01-19T18:24:06.510Z,10.23
2018-01-19T18:26:34.028Z,12.80
2018-01-19T18:29:01.858Z,10.47
2018-01-19T18:31:29.426Z,10.97
2018-01-19T18:33:57.638Z,10.70
2018-01-19T18:36:27.778Z,11.73
2018-01-19T18:38:55.308Z,13.43
2018-01-19T18:41:23.621Z,12.37
2018-01-19T18:43:54.252Z,10.97
2018-01-19T18:46:21.776Z,13.80
2018-01-19T18:48:49.307Z,12.17
2018-01-19T18:51:16.830Z,12.63
2018-01-19T18:53:46.182Z,11.73
2018-01-19T18:56:13.695Z,14.43
2018-01-19T18:58:41.797Z,12.93
2018-01-19T19:01:09.347Z,12.50
2018-01-19T19:03:37.734Z,13.40
2018-01-19T19:06:05.267Z,13.20
2018-01-19T19:08:34.128Z,14.50
2018-01-19T19:11:02.127Z,14.07
2018-01-19T19:13:29.865Z,13.17
2018-01-19T19:15:57.419Z,13.03
2018-01-19T19:18:24.941Z,16.00
2018-01-19T19:20:52.465Z,16.20
2018-01-19T19:23:22.091Z,16.00
2018-01-19T19:25:49.639Z,15.73
2018-01-19T19:28:17.268Z,14.27
2018-01-19T19:30:44.792Z,16.37
2018-01-19T19:33:12.308Z,17.30
2018-01-19T19:35:39.829Z,18.13
2018-01-19T19:38:08.303Z,14.77
2018-01-19T19:40:35.856Z,17.93
2018-01-19T19:43:03.373Z,16.50
2018-01-19T19:45:31.672Z,17.10
2018-01-19T19:47:59.468Z,19.33
2018-01-19T19:50:27.058Z,19.93
2018-01-19T19:52:54.565Z,22.27
2018-01-19T19:55:22.094Z,19.43
2018-01-19T19:57:50.129Z,20.50
2018-01-19T20:00:17.647Z,20.43
2018-01-19T20:02:45.928Z,20.20
2018-01-19T20:05:14.291Z,22.07
2018-01-19T20:07:42.635Z,21.53
2018-01-19T20:10:10.191Z,21.80
2018-01-19T20:12:37.790Z,24.33
2018-01-19T20:15:05.921Z,26.07
2018-01-19T20:17:33.452Z,21.37
2018-01-19T20:20:00.983Z,23.17
2018-01-19T20:22:29.358Z,24.83
2018-01-19T20:24:56.880Z,22.90
2018-01-19T20:27:25.114Z,24.70
2018-01-19T20:29:53.387Z,25.10
2018-01-19T20:32:20.915Z,26.73
2018-01-19T20:34:48.460Z,26.07
2018-01-19T20:37:16.977Z,24.23
2018-01-19T20:39:45.718Z,36.30
2018-01-19T20:42:13.278Z,27.90
2018-01-19T20:44:40.804Z,28.97
2018-01-19T20:47:08.326Z,27.27
2018-01-19T20:49:35.855Z,27.17
2018-01-19T20:52:03.370Z,27.77
2018-01-19T20:54:30.904Z,28.73
2018-01-19T20:56:58.436Z,28.83
2018-01-19T20:59:25.971Z,28.40
2018-01-19T21:01:53.501Z,30.27
2018-01-19T21:04:21.017Z,26.00
2018-01-19T21:06:48.653Z,25.53
2018-01-19T21:09:16.204Z,27.30
2018-01-19T21:11:43.718Z,30.23
2018-01-19T21:14:11.239Z,26.97
2018-01-19T21:16:40.462Z,30.27
2018-01-19T21:19:08.014Z,31.07
2018-01-19T21:21:36.174Z,28.17
2018-01-19T21:24:03.713Z,28.70
2018-01-19T21:26:31.248Z,28.53
2018-01-19T21:28:58.812Z,29.37
2018-01-19T21:31:26.340Z,30.07
2018-01-19T21:33:53.869Z,30.53
2018-01-19T21:36:21.388Z,30.47
2018-01-19T21:38:50.694Z,28.73
2018-01-19T21:41:18.228Z,27.20
2018-01-19T21:43:45.766Z,30.27
2018-01-19T21:46:14.358Z,30.07
2018-01-19T21:48:42.798Z,28.47
2018-01-19T21:51:10.383Z,30.50
2018-01-19T21:53:37.932Z,31.60
2018-01-19T21:56:05.450Z,29.50
2018-01-19T21:58:32.982Z,29.60
2018-01-19T22:01:00.667Z,31.17
2018-01-19T22:03:30.136Z,28.67
2018-01-19T22:05:57.702Z,31.87
2018-01-19T22:08:25.230Z,29.93
2018-01-19T22:10:53.334Z,25.37
2018-01-19T22:13:21.821Z,27.67
2018-01-19T22:15:49.345Z,31.13
2018-01-19T22:18:16.869Z,27.40
2018-01-19T22:20:45.233Z,27.17
2018-01-19T22:23:13.979Z,30.50
2018-01-19T22:25:41.497Z,30.30
2018-01-19T22:28:09.017Z,30.63
2018-01-19T22:30:36.545Z,30.00
2018-01-19T22:33:04.066Z,31.77
2018-01-19T22:35:31.600Z,30.77
2018-01-19T22:37:59.117Z,28.07
2018-01-19T22:40:26.964Z,33.43
2018-01-19T22:42:55.234Z,29.90
2018-01-19T22:45:22.757Z,29.43
2018-01-19T22:47:50.276Z,30.37
2018-01-19T22:50:17.803Z,33.03
2018-01-19T22:52:45.349Z,30.67
2018-01-19T22:55:12.872Z,30.53
2018-01-19T22:57:40.397Z,28.83
2018-01-19T23:00:07.938Z,36.17
2018-01-19T23:02:35.469Z,32.73
2018-01-19T23:05:03.029Z,30.77
2018-01-19T23:07:31.510Z,33.07
2018-01-19T23:09:59.029Z,30.60
2018-01-19T23:12:26.578Z,30.83
2018-01-19T23:14:54.105Z,29.73
2018-01-19T23:17:21.650Z,30.13
2018-01-19T23:19:49.176Z,30.23
2018-01-19T23:22:16.705Z,29.23
2018-01-19T23:24:44.228Z,28.07
2018-01-19T23:27:11.752Z,27.77
2018-01-19T23:29:39.274Z,27.50
2018-01-19T23:32:06.805Z,31.50
2018-01-19T23:34:34.360Z,29.53
2018-01-19T23:37:01.886Z,27.10
2018-01-19T23:39:29.417Z,27.67
2018-01-19T23:41:56.946Z,31.53
2018-01-19T23:44:24.466Z,28.57
2018-01-19T23:46:51.994Z,32.13
2018-01-19T23:49:19.516Z,24.77
2018-01-19T23:51:47.040Z,26.73
2018-01-19T23:54:14.570Z,27.00
2018-01-19T23:56:42.092Z,26.63
2018-01-19T23:59:09.617Z,26.67
